Terminal Aerodrome Forecast
Issued by NWS Wilmington, NC

Current Version | Previous Version | Graphics & Text | Print | Product List | Glossary Off
Versions: 1 2 3 4 5 6 7 8 9 10 11 12 13 14 15 16

000
FTUS42 KILM 062330
TAFLBT
TAF
KLBT 062330Z 0700/0724 33004KT P6SM VCSH SCT050 BKN100
     FM070400 30003KT P6SM SCT050 SCT100
     FM071200 29009KT P6SM SCT050 BKN100
     FM071600 29012KT P6SM SCT050=

USA.gov is the U.S. government's official web portal to all federal, state and local government web resources and services.